Airfield :
LOGIN :

Register | Disclaimer

   EN    FR    IT 

 










Legend :    VFR   Marginal VFR   IFR   Intensive IFR   Very Intensive IFR
Visi :
Ceiling :
>= 8 km
>= 3000ft
5 to 8 km
1000 to 3000 ft
1500m to 5 km
500 to 1000 ft
800 to 1500m
200 to 500 ft
< 800m
< 200 ft
Symbols :   Thunderstorms  Fog  Heavy snow  Heavy precipitations  Wind > 20 kt
SIGMETs :     Misc.  Thunderstorms  Icing  Turbulence  Mountain Waves  Volcanic Ashes






- Airport Elevation : 218 ft


EGYD - RAF Cranwell

CURRENT METAR :
  • 240850Z 33014KT 9999 VCSH BKN022 BKN550 07/02 Q1017 TEMPO BKN025 RMK WHT TEMPO BLU

EXPIRED METARs :
  • 240833Z 33013KT 9999 SCT018 BKN055 06/02 Q1017 TEMPO FEW018 RMK WHT TEMPO BLU
  • 240820Z 33014KT 9999 FEW018 BKN055 06/01 Q1017 TEMPO SCT018 RMK BLU TEMPO WHT
  • 240750Z 33014KT 9999 FEW024 BKN054 06/01 Q1017 NOSIG RMK BLU BLU
  • 240720Z 32013KT 9999 FEW020 BKN052 05/01 Q1017 TEMPO SCT020 RMK BLU TEMPO WHT
  • 240650Z 33013KT 9999 FEW020 BKN050 05/01 Q1017 TEMPO SCT020 RMK BLU TEMPO WHT
  • 240620Z 31010KT CAVOK 04/02 Q1017 NOSIG RMK BLU BLU
  • 240550Z 31009KT 9999 BKN048 04/01 Q1017 NOSIG RMK BLU BLU
  • 240520Z AUTO 32008KT 9999 BKN049/// 03/01 Q1018
  • 240450Z AUTO 31010KT 9999 BKN048/// 04/01 Q1018
  • 240420Z AUTO 29007KT 9999 BKN049/// 03/01 Q1018

TAF TAF EGYD
Valid from the 24 at 09:00 until the 24 at 18:00 UTC


240715Z 2409/2418 35011KT 9999 BKN040
PROB30
TEMPO 2409/2411 SCT020



MET'MAP, your aeronautical weather chart ! - Copyright ORBIFLY December 2007 - Disclaimer

ORBIFLY MET'MAP TEAM :

Programming & Development : Alexandra Zaïnal
Original concept : Baudouin d'Aumeries
Technical & hardware support : Manuel Goepfert
Assistance : Marc-Olivier Méhu




SOURCES & CREDITS :

   NOAA